KGHW

Glenwood Municipal Airport

Glenwood, Minnesota, USA
METAR KGHW 190855Z AUTO 08009KT 10SM OVC007 14/13 A3000 RMK AO2
Observed Flight Rules
Sep-19 @ 08:55 UTC (12 minutes ago) Instrument Flight Rules
Wind Visibility Clouds
80° at 9 knots 10 miles
  • Overcast at 700' AGL
Temperatures Readings
Current 14°C / 57°F
Dewpoint 13°C / 55°F
Humidity 94%
Altimeter 30" Hg
Pressure 1016 hPa
Elevation 425
METAR KGHW 190855Z AUTO 08009KT 10SM OVC007 14/13 A3000 RMK AO2
Observed Flight Rules
Sep-19 @ 08:55 UTC
(12 minutes ago)
IFR
Wind Visibility
80° at 9 knots 10 miles
Clouds
  • Overcast at 700' AGL
Temperature Dewpoint
14°C / 57°F 13°C / 55°F
Humidity Altimeter Pressure
94% 30" Hg 1016 hPa